createdAt,value
2022-10-22T00:03:37.815Z,98793.41
2022-10-22T00:09:39.960Z,98793.63
2022-10-22T00:15:41.865Z,98776.28
2022-10-22T00:21:43.870Z,98785.34
2022-10-22T00:27:45.751Z,98778.78
2022-10-22T00:33:48.272Z,98793.06
2022-10-22T00:39:50.150Z,98788.16
2022-10-22T00:45:52.045Z,98785.66
2022-10-22T00:58:08.167Z,98813.22
2022-10-22T01:04:10.677Z,98808.53
2022-10-22T01:11:16.560Z,98794.81
2022-10-22T01:17:34.931Z,98811.94
2022-10-22T01:24:13.102Z,98801.84
2022-10-22T01:30:15.883Z,98798.44
2022-10-22T01:36:18.853Z,98794.38
2022-10-22T01:42:20.762Z,98775.00
2022-10-22T01:49:00.478Z,98764.34
2022-10-22T01:55:11.128Z,98765.88
2022-10-22T02:01:26.730Z,98763.53
2022-10-22T02:07:35.923Z,98774.19
2022-10-22T02:13:47.568Z,98771.38
2022-10-22T02:20:01.003Z,98778.75
2022-10-22T02:26:31.167Z,98778.84
2022-10-22T02:33:11.589Z,98780.97
2022-10-22T02:45:22.815Z,98791.53
2022-10-22T02:51:24.735Z,98795.28
2022-10-22T02:57:26.765Z,98801.13
2022-10-22T03:03:28.829Z,98796.81
2022-10-22T03:09:30.921Z,98788.00
2022-10-22T03:15:32.818Z,98794.38
2022-10-22T03:21:52.950Z,98800.69
2022-10-22T03:28:01.318Z,98807.69
2022-10-22T03:34:03.306Z,98811.94
2022-10-22T03:40:07.369Z,98825.66
2022-10-22T03:46:09.277Z,98824.63
2022-10-22T03:52:14.349Z,98814.88
2022-10-22T03:58:16.273Z,98827.53
2022-10-22T04:04:18.154Z,98842.41
2022-10-22T04:10:20.174Z,98859.97
2022-10-22T04:16:25.166Z,98864.00
2022-10-22T04:22:29.587Z,98866.56
2022-10-22T04:28:40.010Z,98862.09
2022-10-22T04:34:44.271Z,98860.13
2022-10-22T04:40:46.172Z,98870.44
2022-10-22T04:46:48.153Z,98862.13
2022-10-22T04:52:50.465Z,98867.72
2022-10-22T04:59:02.630Z,98865.81
2022-10-22T05:05:05.662Z,98867.91
2022-10-22T05:11:19.408Z,98864.50
2022-10-22T05:17:21.353Z,98859.69
2022-10-22T05:23:23.496Z,98868.94
2022-10-22T05:29:26.812Z,98861.88
2022-10-22T05:35:28.769Z,98865.75
2022-10-22T05:41:31.028Z,98875.53
2022-10-22T05:47:32.934Z,98887.31
2022-10-22T05:53:37.007Z,98883.16
2022-10-22T05:59:38.944Z,98889.97
2022-10-22T06:05:40.896Z,98885.34
2022-10-22T06:11:42.942Z,98894.91
2022-10-22T06:17:45.986Z,98907.00
2022-10-22T06:23:47.894Z,98906.34
2022-10-22T06:29:49.802Z,98911.88
2022-10-22T06:35:51.783Z,98927.09
2022-10-22T06:41:53.645Z,98941.56
2022-10-22T06:47:55.815Z,98956.81
2022-10-22T06:53:59.275Z,98969.84
2022-10-22T07:00:01.287Z,98963.34
2022-10-22T07:06:06.847Z,98971.44
2022-10-22T07:12:08.745Z,98983.47
2022-10-22T07:18:10.707Z,98984.66
2022-10-22T07:24:12.750Z,99000.31
2022-10-22T07:30:14.842Z,99003.50
2022-10-22T07:36:17.978Z,99015.97
2022-10-22T07:42:20.186Z,99027.38
2022-10-22T07:48:23.088Z,99039.00
2022-10-22T07:54:44.228Z,99045.34
2022-10-22T08:00:49.916Z,99053.16
2022-10-22T08:06:51.964Z,99049.22
2022-10-22T08:12:53.870Z,99064.25
2022-10-22T08:18:55.816Z,99060.38
2022-10-22T08:24:57.736Z,99057.47
2022-10-22T08:30:59.711Z,99056.38
2022-10-22T08:37:01.682Z,99057.06
2022-10-22T08:43:18.606Z,99054.75
2022-10-22T08:49:28.821Z,99053.31
2022-10-22T08:55:36.492Z,99060.41
2022-10-22T09:01:45.620Z,99062.81
2022-10-22T09:07:50.444Z,99065.19
2022-10-22T09:20:23.792Z,99077.81
2022-10-22T09:26:27.263Z,99090.78
2022-10-22T09:32:29.459Z,99077.69
2022-10-22T09:38:39.098Z,99086.69
2022-10-22T09:44:43.747Z,99076.66
2022-10-22T09:50:55.487Z,99091.88
2022-10-22T09:57:13.779Z,99102.00
2022-10-22T10:03:32.031Z,99110.78
2022-10-22T10:09:36.345Z,99112.09
2022-10-22T10:16:07.983Z,99123.50
2022-10-22T10:22:44.646Z,99130.78
2022-10-22T10:29:05.030Z,99124.16
2022-10-22T10:35:36.319Z,99117.97
2022-10-22T10:42:09.940Z,99124.31
2022-10-22T10:48:45.166Z,99128.38
2022-10-22T10:54:54.472Z,99111.91
2022-10-22T11:01:12.457Z,99126.44
2022-10-22T11:07:35.094Z,99131.25
2022-10-22T11:14:16.830Z,99137.34
2022-10-22T11:20:22.478Z,99147.66
2022-10-22T11:26:45.821Z,99148.41
2022-10-22T11:33:01.853Z,99141.56
2022-10-22T11:39:38.218Z,99128.34
2022-10-22T11:45:57.639Z,99127.59
2022-10-22T11:52:28.244Z,99129.97
2022-10-22T11:58:50.694Z,99129.44
2022-10-22T12:05:16.271Z,99117.94
2022-10-22T12:11:47.979Z,99112.00
2022-10-22T12:17:50.494Z,99111.09
2022-10-22T12:23:52.628Z,99105.97
2022-10-22T12:29:59.981Z,99103.38
2022-10-22T12:36:04.112Z,99095.81
2022-10-22T12:42:29.667Z,99096.31
2022-10-22T12:56:33.891Z,99106.53
2022-10-22T13:02:35.841Z,99096.03
2022-10-22T13:08:40.268Z,99101.44
2022-10-22T13:14:45.040Z,99098.25
2022-10-22T13:21:41.818Z,99114.38
2022-10-22T13:27:49.437Z,99109.41
2022-10-22T13:34:00.042Z,99107.03
2022-10-22T13:40:15.826Z,99106.53
2022-10-22T13:46:19.185Z,99114.66
2022-10-22T13:52:55.310Z,99110.47
2022-10-22T13:58:57.268Z,99115.34
2022-10-22T14:05:04.557Z,99123.91
2022-10-22T14:11:06.651Z,99117.66
2022-10-22T14:17:19.126Z,99121.03
2022-10-22T14:23:24.772Z,99113.00
2022-10-22T14:29:29.770Z,99131.31
2022-10-22T14:42:16.607Z,99131.41
2022-10-22T14:54:21.421Z,99138.25
2022-10-22T15:00:23.793Z,99143.69
2022-10-22T15:06:25.917Z,99151.19
2022-10-22T15:12:27.897Z,99157.94
2022-10-22T15:24:46.252Z,99170.84
2022-10-22T15:30:59.949Z,99195.28
2022-10-22T15:37:05.246Z,99199.13
2022-10-22T15:43:07.205Z,99211.53
2022-10-22T15:49:09.130Z,99203.78
2022-10-22T16:01:14.710Z,99218.09
2022-10-22T16:07:18.044Z,99216.66
2022-10-22T16:13:24.767Z,99235.16
2022-10-22T16:19:29.787Z,99247.97
2022-10-22T16:25:37.380Z,99246.97
2022-10-22T16:31:48.961Z,99240.47
2022-10-22T16:37:56.874Z,99255.19
2022-10-22T16:44:00.942Z,99252.75
2022-10-22T16:50:15.029Z,99256.59
2022-10-22T17:02:35.227Z,99269.25
2022-10-22T17:08:39.164Z,99276.13
2022-10-22T17:14:41.127Z,99276.56
2022-10-22T17:20:43.760Z,99276.47
2022-10-22T17:26:46.743Z,99286.66
2022-10-22T17:32:48.854Z,99288.88
2022-10-22T17:38:57.943Z,99289.56
2022-10-22T17:44:59.904Z,99292.41
2022-10-22T17:51:09.149Z,99299.00
2022-10-22T17:57:15.877Z,99302.56
2022-10-22T18:03:18.014Z,99314.19
2022-10-22T18:09:20.137Z,99314.28
2022-10-22T18:15:31.295Z,99318.44
2022-10-22T18:21:33.198Z,99317.25
2022-10-22T18:27:35.157Z,99321.38
2022-10-22T18:33:39.004Z,99321.44
2022-10-22T18:39:41.018Z,99334.56
2022-10-22T18:45:48.518Z,99328.78
2022-10-22T18:51:55.325Z,99322.63
2022-10-22T18:58:40.974Z,99327.91
2022-10-22T19:04:45.746Z,99334.75
2022-10-22T19:10:48.548Z,99337.38
2022-10-22T19:16:51.937Z,99336.88
2022-10-22T19:22:55.841Z,99347.69
2022-10-22T19:29:00.554Z,99351.84
2022-10-22T19:35:02.727Z,99361.66
2022-10-22T19:41:18.054Z,99364.97
2022-10-22T19:47:19.975Z,99361.53
2022-10-22T19:53:22.967Z,99371.28
2022-10-22T19:59:29.794Z,99363.34
2022-10-22T20:05:33.995Z,99376.84
2022-10-22T20:11:36.196Z,99383.91
2022-10-22T20:17:38.092Z,99380.19
2022-10-22T20:23:40.553Z,99383.50
2022-10-22T20:29:42.497Z,99380.44
2022-10-22T20:35:44.936Z,99377.59
2022-10-22T20:41:49.374Z,99383.00
2022-10-22T20:47:58.709Z,99384.25
2022-10-22T20:54:06.354Z,99384.25
2022-10-22T21:00:09.544Z,99376.59
2022-10-22T21:06:11.708Z,99375.94
2022-10-22T21:12:13.634Z,99380.72
2022-10-22T21:18:15.585Z,99381.16
2022-10-22T21:24:17.636Z,99379.06
2022-10-22T21:30:19.604Z,99378.66
2022-10-22T21:36:25.059Z,99386.50
2022-10-22T21:42:26.947Z,99386.25
2022-10-22T21:48:29.267Z,99387.31
2022-10-22T21:54:31.206Z,99401.38
2022-10-22T22:00:33.550Z,99397.63
2022-10-22T22:06:35.529Z,99396.66
2022-10-22T22:12:37.483Z,99396.00
2022-10-22T22:18:41.048Z,99396.69
2022-10-22T22:24:42.931Z,99403.28
2022-10-22T22:30:44.914Z,99401.41
2022-10-22T22:36:49.715Z,99397.69
2022-10-22T22:42:51.613Z,99395.22
2022-10-22T22:48:53.581Z,99383.81
2022-10-22T22:54:55.486Z,99379.94
2022-10-22T23:01:30.708Z,99365.00
2022-10-22T23:07:32.668Z,99364.19
2022-10-22T23:13:42.560Z,99367.50
2022-10-22T23:20:05.085Z,99356.53
2022-10-22T23:26:40.626Z,99373.72
2022-10-22T23:32:42.544Z,99367.91
2022-10-22T23:45:39.109Z,99356.53
2022-10-22T23:51:45.132Z,99353.97
2022-10-22T23:57:47.209Z,99366.59
